Montana City, Montana
Current Conditions -  °F | °C
As of 5:53 AM on Saturday 22 Nov 2014 (Local Time) from KHLN Reporting Station
Overcast Overcast  
Wind Chill: 35°   Ceiling: 5000
Heat Index: 43°   Visibility: 10mi
Dew Point: 34°   Wind: 18mph
Humidity: 71%   Direction: 180°S
Pressure: 29.39"   Gusts: 23mph
Location:  46.4035°N, 112.119°W
Report Text: KHLN 221253Z 18016G20KT 10SM OVC050 06/01 A2939 RMK AO2 RAB1154E20 SLP974 P0001 T00610011
Loading
Personal Weather Stations






























Interactive Weather Map New forecast layout! Learn more

10-Day Weather Forecast

Advertisements
Track Severe Weather on mobile